Monday, February 19, 2018, 4:58 AM EST
Back to Local

KLFI, Langley Air Force Base

Location: Hampton, VA, United States Lat: 37.083
Local Time: 4:58 AM EST ( 9:58 GMT) Lon: -76.35
Time Zone: US/Eastern Elev: 9 ft

Show me the last for .
Show Decoded

2018-02-19 03:56 METAR KLFI 190856Z AUTO 12005KT 10SM BKN190 05/03 A3048 RMK AO2 SLP328 T00510031
                 57016 $ =
2018-02-19 02:56 METAR KLFI 190756Z AUTO 10006KT 10SM FEW220 03/02 A3049 RMK AO2 SLP332 T00270020
                 $ =
2018-02-19 01:56 METAR KLFI 190656Z AUTO 11004KT 10SM CLR 03/03 A3050 RMK AO2 SLP335 T00290025 $
                 =
2018-02-19 00:56 METAR KLFI 190556Z AUTO 00000KT 10SM SCT230 04/03 A3053 RMK AO2 SLP345 T00350029
                 10059 20033 51010 $ =
2018-02-18 23:56 METAR KLFI 190456Z AUTO 14004KT 10SM CLR 05/03 A3052 RMK AO2 SLP342 T00470032
                 401010033 $ =
2018-02-18 22:56 METAR KLFI 190356Z AUTO 13004KT 10SM CLR 05/03 A3052 RMK AO2 SLP342 T00480028 $
                 =
2018-02-18 21:56 METAR KLFI 190256Z AUTO 15003KT 10SM CLR 05/02 A3050 RMK AO2 SLP335 T00530021
                 52014 $ =
2018-02-18 20:56 METAR KLFI 190156Z AUTO 15005KT 10SM CLR 05/02 A3048 RMK AO2 SLP328 T00530020 $
                 =
2018-02-18 19:56 METAR KLFI 190056Z AUTO 13004KT 10SM CLR 06/02 A3047 RMK AO2 SLP325 T00560024 $
                 =
2018-02-18 18:56 METAR KLFI 182356Z AUTO 11003KT 10SM CLR 06/02 A3045 RMK AO2 SLP318 T00590020
                 10101 20052 52013 $ =
2018-02-18 17:56 METAR KLFI 182256Z AUTO 07004KT 10SM CLR 06/00 A3044 RMK AO2 SLP315 T00590004 $
                 =
2018-02-18 16:56 METAR KLFI 182156Z AUTO 07007KT 10SM CLR 08/01 A3044 RMK AO2 SLP315 T00790008 $
                 =
2018-02-18 15:56 METAR KLFI 182056Z AUTO 06011KT 10SM CLR 09/01 A3042 RMK AO2 SLP308 T00860006
                 55000 $ =
2018-02-18 14:56 METAR KLFI 181956Z AUTO 06011KT 10SM CLR 09/02 A3040 RMK AO2 SLP301 T00910015 $
                 =
2018-02-18 13:56 METAR KLFI 181856Z AUTO 06012KT 9SM CLR 10/02 A3040 RMK AO2 SLP301 T00960017 $ =
2018-02-18 12:56 METAR KLFI 181756Z AUTO 05011KT 9SM CLR 10/02 A3042 RMK AO2 SLP308 T00950024
                 10097 20033 51012 $ =
2018-02-18 11:56 METAR KLFI 181656Z AUTO 03011KT 9SM CLR 09/02 A3042 RMK AO2 SLP308 T00910022 $ =
2018-02-18 10:56 METAR KLFI 181556Z AUTO 03014KT 10SM CLR 09/03 A3040 RMK AO2 SLP301 T00860032 $
                 =
2018-02-18 09:56 METAR KLFI 181456Z AUTO 03009G16KT 10SM CLR 08/04 A3038 RMK AO2 SLP295 T00780044
                 52051 $ =
2018-02-18 08:56 METAR KLFI 181356Z AUTO 36005KT 9SM FEW006 06/05 A3034 RMK AO2 SLPNO T00640049 $
                 =
2018-02-18 08:11 METAR KLFI 181311Z AUTO 01007KT 9SM SCT006 05/05 A3030 RMK AO2 PRESRR SLPNO $ =
2018-02-18 07:56 METAR KLFI 181256Z AUTO 02006KT 8SM BKN006 05/05 A3028 RMK AO2 SLPNO T00480047 $
                 =
2018-02-18 06:56 METAR KLFI 181156Z AUTO 36006KT 5SM BR FEW006 03/03 A3023 RMK AO2 SLPNO 7////
                 T00330032 10046 20033 52045 $ =
2018-02-18 06:27 METAR KLFI 181127Z AUTO 35006KT 10SM FEW007 04/03 A3022 RMK AO2 SLPNO $ =
2018-02-18 05:56 METAR KLFI 181056Z AUTO 34005KT 10SM CLR 04/04 A3019 RMK AO2 SLPNO T00390036 $ =

Support USWX by starting your Amazon purchase here.